sensor_id;sensor_type;location;lat;lon;timestamp;pressure;altitude;pressure_sealevel;temperature;humidity
10720;BME280;5411;58.386;15.560;2023-05-31T00:01:58;101032.28;;;12.75;61.32
10720;BME280;5411;58.386;15.560;2023-05-31T00:04:27;101014.31;;;12.75;61.53
10720;BME280;5411;58.386;15.560;2023-05-31T00:06:55;101017.84;;;12.76;61.78
10720;BME280;5411;58.386;15.560;2023-05-31T00:09:24;101013.28;;;12.76;62.09
10720;BME280;5411;58.386;15.560;2023-05-31T00:11:52;101005.25;;;12.76;61.82
10720;BME280;5411;58.386;15.560;2023-05-31T00:14:20;101000.47;;;12.78;61.90
10720;BME280;5411;58.386;15.560;2023-05-31T00:16:57;100996.75;;;12.79;61.66
10720;BME280;5411;58.386;15.560;2023-05-31T00:19:46;100986.00;;;12.79;61.91
10720;BME280;5411;58.386;15.560;2023-05-31T00:22:14;100983.75;;;12.83;61.71
10720;BME280;5411;58.386;15.560;2023-05-31T00:24:44;100979.22;;;12.83;61.88
10720;BME280;5411;58.386;15.560;2023-05-31T00:27:12;100978.00;;;12.86;62.27
10720;BME280;5411;58.386;15.560;2023-05-31T00:29:40;100968.72;;;12.89;62.20
10720;BME280;5411;58.386;15.560;2023-05-31T00:32:10;100971.19;;;12.90;61.77
10720;BME280;5411;58.386;15.560;2023-05-31T00:34:39;100956.75;;;12.91;62.49
10720;BME280;5411;58.386;15.560;2023-05-31T00:37:13;100962.09;;;12.91;62.47
10720;BME280;5411;58.386;15.560;2023-05-31T00:39:46;100959.19;;;12.93;62.27
10720;BME280;5411;58.386;15.560;2023-05-31T00:42:16;100954.66;;;12.93;62.86
10720;BME280;5411;58.386;15.560;2023-05-31T00:44:44;100950.09;;;12.94;63.23
10720;BME280;5411;58.386;15.560;2023-05-31T00:47:14;100939.38;;;12.94;62.92
10720;BME280;5411;58.386;15.560;2023-05-31T00:49:43;100941.84;;;12.95;62.70
10720;BME280;5411;58.386;15.560;2023-05-31T00:52:11;100931.72;;;12.97;62.81
10720;BME280;5411;58.386;15.560;2023-05-31T00:54:40;100932.34;;;12.99;62.99
10720;BME280;5411;58.386;15.560;2023-05-31T00:57:09;100923.06;;;13.02;63.05
10720;BME280;5411;58.386;15.560;2023-05-31T00:59:39;100919.34;;;13.03;63.19
10720;BME280;5411;58.386;15.560;2023-05-31T01:02:07;100917.28;;;13.05;63.35
10720;BME280;5411;58.386;15.560;2023-05-31T01:04:39;100918.09;;;13.05;63.23
10720;BME280;5411;58.386;15.560;2023-05-31T01:07:08;100925.94;;;13.07;64.03
10720;BME280;5411;58.386;15.560;2023-05-31T01:09:39;100914.19;;;13.08;63.89
10720;BME280;5411;58.386;15.560;2023-05-31T01:12:17;100922.22;;;13.08;63.66
10720;BME280;5411;58.386;15.560;2023-05-31T01:14:58;100911.69;;;13.06;64.19
10720;BME280;5411;58.386;15.560;2023-05-31T01:17:39;100901.38;;;13.03;64.34
10720;BME280;5411;58.386;15.560;2023-05-31T01:20:16;100898.91;;;13.02;63.88
10720;BME280;5411;58.386;15.560;2023-05-31T01:22:59;100892.06;;;12.99;64.40
10720;BME280;5411;58.386;15.560;2023-05-31T01:25:57;100888.13;;;12.95;64.86
10720;BME280;5411;58.386;15.560;2023-05-31T01:28:29;100891.22;;;12.92;64.23
10720;BME280;5411;58.386;15.560;2023-05-31T01:31:04;100892.47;;;12.90;64.71
10720;BME280;5411;58.386;15.560;2023-05-31T01:33:36;100884.81;;;12.87;64.79
10720;BME280;5411;58.386;15.560;2023-05-31T01:36:05;100887.28;;;12.81;64.67
10720;BME280;5411;58.386;15.560;2023-05-31T01:38:34;100881.50;;;12.78;64.83
10720;BME280;5411;58.386;15.560;2023-05-31T01:41:02;100867.03;;;12.72;65.35
10720;BME280;5411;58.386;15.560;2023-05-31T01:43:36;100860.00;;;12.65;65.78
10720;BME280;5411;58.386;15.560;2023-05-31T01:46:07;100852.97;;;12.57;65.91
10720;BME280;5411;58.386;15.560;2023-05-31T01:48:39;100851.09;;;12.51;66.68
10720;BME280;5411;58.386;15.560;2023-05-31T01:51:09;100851.91;;;12.45;65.88
10720;BME280;5411;58.386;15.560;2023-05-31T01:53:43;100841.97;;;12.39;67.40
10720;BME280;5411;58.386;15.560;2023-05-31T01:56:12;100839.91;;;12.34;67.72
10720;BME280;5411;58.386;15.560;2023-05-31T01:58:44;100837.63;;;12.31;67.77
10720;BME280;5411;58.386;15.560;2023-05-31T02:01:15;100846.69;;;12.30;67.49
10720;BME280;5411;58.386;15.560;2023-05-31T02:03:48;100845.03;;;12.29;67.89
10720;BME280;5411;58.386;15.560;2023-05-31T02:06:18;100838.03;;;12.28;67.65
10720;BME280;5411;58.386;15.560;2023-05-31T02:08:47;100836.38;;;12.27;67.53
10720;BME280;5411;58.386;15.560;2023-05-31T02:11:15;100844.63;;;12.26;67.06
10720;BME280;5411;58.386;15.560;2023-05-31T02:13:47;100838.03;;;12.28;67.74
10720;BME280;5411;58.386;15.560;2023-05-31T02:16:16;100836.16;;;12.29;67.59
10720;BME280;5411;58.386;15.560;2023-05-31T02:18:44;100833.69;;;12.27;67.30
10720;BME280;5411;58.386;15.560;2023-05-31T02:21:13;100836.38;;;12.27;67.33
10720;BME280;5411;58.386;15.560;2023-05-31T02:23:41;100831.19;;;12.26;67.83
10720;BME280;5411;58.386;15.560;2023-05-31T02:26:10;100841.09;;;12.25;68.22
10720;BME280;5411;58.386;15.560;2023-05-31T02:28:39;100833.28;;;12.24;68.29
10720;BME280;5411;58.386;15.560;2023-05-31T02:31:08;100838.03;;;12.22;68.38
10720;BME280;5411;58.386;15.560;2023-05-31T02:33:37;100834.72;;;12.20;67.26
10720;BME280;5411;58.386;15.560;2023-05-31T02:36:08;100827.69;;;12.19;68.11
10720;BME280;5411;58.386;15.560;2023-05-31T02:38:37;100834.06;;;12.18;68.33
10720;BME280;5411;58.386;15.560;2023-05-31T02:41:06;100842.13;;;12.18;68.13
10720;BME280;5411;58.386;15.560;2023-05-31T02:43:34;100832.63;;;12.15;69.03
10720;BME280;5411;58.386;15.560;2023-05-31T02:46:03;100841.28;;;12.10;69.76
10720;BME280;5411;58.386;15.560;2023-05-31T02:48:33;100839.00;;;12.07;70.38
10720;BME280;5411;58.386;15.560;2023-05-31T02:51:01;100833.63;;;12.07;69.04
10720;BME280;5411;58.386;15.560;2023-05-31T02:53:30;100831.16;;;12.06;70.17
10720;BME280;5411;58.386;15.560;2023-05-31T02:55:58;100815.69;;;12.08;69.67
10720;BME280;5411;58.386;15.560;2023-05-31T02:58:27;100808.28;;;12.17;69.70
10720;BME280;5411;58.386;15.560;2023-05-31T03:00:55;100805.44;;;12.31;69.26
10720;BME280;5411;58.386;15.560;2023-05-31T03:03:24;100803.38;;;12.33;69.16
10720;BME280;5411;58.386;15.560;2023-05-31T03:05:54;100809.19;;;12.50;69.22
10720;BME280;5411;58.386;15.560;2023-05-31T03:08:22;100804.25;;;12.73;68.14
10720;BME280;5411;58.386;15.560;2023-05-31T03:10:51;100802.59;;;12.92;67.57
10720;BME280;5411;58.386;15.560;2023-05-31T03:13:20;100791.84;;;13.05;67.67
10720;BME280;5411;58.386;15.560;2023-05-31T03:15:53;100798.28;;;13.17;66.00
10720;BME280;5411;58.386;15.560;2023-05-31T03:18:22;100793.50;;;13.13;66.22
10720;BME280;5411;58.386;15.560;2023-05-31T03:20:50;100789.97;;;13.12;66.69
10720;BME280;5411;58.386;15.560;2023-05-31T03:23:20;100784.22;;;13.15;65.97
10720;BME280;5411;58.386;15.560;2023-05-31T03:25:48;100784.41;;;13.20;65.45
10720;BME280;5411;58.386;15.560;2023-05-31T03:28:17;100778.19;;;13.27;65.43
10720;BME280;5411;58.386;15.560;2023-05-31T03:30:45;100787.84;;;13.54;64.23
10720;BME280;5411;58.386;15.560;2023-05-31T03:33:14;100776.16;;;13.80;63.57
10720;BME280;5411;58.386;15.560;2023-05-31T03:35:43;100781.22;;;14.08;62.42
10720;BME280;5411;58.386;15.560;2023-05-31T03:38:12;100776.06;;;14.38;61.06
10720;BME280;5411;58.386;15.560;2023-05-31T03:40:42;100784.13;;;14.69;60.05
10720;BME280;5411;58.386;15.560;2023-05-31T03:43:11;100778.91;;;14.99;58.63
10720;BME280;5411;58.386;15.560;2023-05-31T03:45:40;100768.69;;;15.26;58.37
10720;BME280;5411;58.386;15.560;2023-05-31T03:48:08;100777.78;;;15.50;57.68
10720;BME280;5411;58.386;15.560;2023-05-31T03:50:38;100779.47;;;15.69;56.50
10720;BME280;5411;58.386;15.560;2023-05-31T03:53:07;100783.16;;;15.86;55.64
10720;BME280;5411;58.386;15.560;2023-05-31T03:55:36;100784.41;;;16.02;55.72
10720;BME280;5411;58.386;15.560;2023-05-31T03:58:06;100782.00;;;16.12;54.86
10720;BME280;5411;58.386;15.560;2023-05-31T04:00:35;100775.84;;;16.23;54.60
10720;BME280;5411;58.386;15.560;2023-05-31T04:03:04;100783.59;;;16.31;53.83
10720;BME280;5411;58.386;15.560;2023-05-31T04:05:32;100780.44;;;16.34;53.97
10720;BME280;5411;58.386;15.560;2023-05-31T04:08:01;100773.78;;;16.37;53.76
10720;BME280;5411;58.386;15.560;2023-05-31T04:10:31;100766.78;;;16.29;53.71
10720;BME280;5411;58.386;15.560;2023-05-31T04:13:00;100763.38;;;16.22;54.14
10720;BME280;5411;58.386;15.560;2023-05-31T04:15:30;100772.00;;;16.13;54.71
10720;BME280;5411;58.386;15.560;2023-05-31T04:18:01;100769.66;;;16.04;55.23
10720;BME280;5411;58.386;15.560;2023-05-31T04:20:30;100770.06;;;15.90;56.31
10720;BME280;5411;58.386;15.560;2023-05-31T04:22:58;100775.28;;;15.85;57.23
10720;BME280;5411;58.386;15.560;2023-05-31T04:25:27;100763.19;;;15.76;58.11
10720;BME280;5411;58.386;15.560;2023-05-31T04:27:55;100765.38;;;15.67;58.83
10720;BME280;5411;58.386;15.560;2023-05-31T04:30:24;100766.84;;;15.63;59.93
10720;BME280;5411;58.386;15.560;2023-05-31T04:32:55;100763.78;;;15.59;60.25
10720;BME280;5411;58.386;15.560;2023-05-31T04:35:27;100774.22;;;15.56;60.93
10720;BME280;5411;58.386;15.560;2023-05-31T04:37:57;100767.78;;;15.57;61.04
10720;BME280;5411;58.386;15.560;2023-05-31T04:40:29;100765.66;;;15.59;61.10
10720;BME280;5411;58.386;15.560;2023-05-31T04:43:00;100757.94;;;15.62;62.16
10720;BME280;5411;58.386;15.560;2023-05-31T04:45:29;100755.63;;;15.66;62.04
10720;BME280;5411;58.386;15.560;2023-05-31T04:47:59;100761.84;;;15.66;62.08
10720;BME280;5411;58.386;15.560;2023-05-31T04:50:29;100748.97;;;15.68;62.61
10720;BME280;5411;58.386;15.560;2023-05-31T04:52:58;100756.94;;;15.75;62.83
10720;BME280;5411;58.386;15.560;2023-05-31T04:55:27;100759.44;;;15.77;62.80
10720;BME280;5411;58.386;15.560;2023-05-31T04:57:55;100760.63;;;15.81;63.45
10720;BME280;5411;58.386;15.560;2023-05-31T05:00:24;100755.84;;;15.83;63.61
10720;BME280;5411;58.386;15.560;2023-05-31T05:02:52;100754.31;;;15.87;63.43
10720;BME280;5411;58.386;15.560;2023-05-31T05:05:24;100752.44;;;15.87;64.04
10720;BME280;5411;58.386;15.560;2023-05-31T05:07:52;100754.22;;;15.93;64.45
10720;BME280;5411;58.386;15.560;2023-05-31T05:10:23;100748.50;;;16.01;64.35
10720;BME280;5411;58.386;15.560;2023-05-31T05:12:51;100759.06;;;16.03;64.27
10720;BME280;5411;58.386;15.560;2023-05-31T05:15:20;100762.38;;;16.05;64.89
10720;BME280;5411;58.386;15.560;2023-05-31T05:17:48;100740.66;;;16.12;64.60
10720;BME280;5411;58.386;15.560;2023-05-31T05:20:17;100737.06;;;16.18;64.11
10720;BME280;5411;58.386;15.560;2023-05-31T05:22:51;100720.63;;;16.19;64.08
10720;BME280;5411;58.386;15.560;2023-05-31T05:25:20;100709.72;;;16.26;64.13
10720;BME280;5411;58.386;15.560;2023-05-31T05:27:49;100714.91;;;16.27;64.21
10720;BME280;5411;58.386;15.560;2023-05-31T05:30:17;100716.09;;;16.31;64.05
10720;BME280;5411;58.386;15.560;2023-05-31T05:32:49;100720.22;;;16.34;64.03
10720;BME280;5411;58.386;15.560;2023-05-31T05:35:18;100727.13;;;16.42;63.98
10720;BME280;5411;58.386;15.560;2023-05-31T05:37:47;100728.56;;;16.44;63.61
10720;BME280;5411;58.386;15.560;2023-05-31T05:40:17;100735.38;;;16.47;64.11
10720;BME280;5411;58.386;15.560;2023-05-31T05:42:47;100735.25;;;16.53;64.18
10720;BME280;5411;58.386;15.560;2023-05-31T05:45:16;100742.44;;;16.59;63.83
10720;BME280;5411;58.386;15.560;2023-05-31T05:47:44;100739.19;;;16.69;63.89
10720;BME280;5411;58.386;15.560;2023-05-31T05:50:16;100742.63;;;16.76;63.28
10720;BME280;5411;58.386;15.560;2023-05-31T05:52:45;100752.59;;;16.76;62.72
10720;BME280;5411;58.386;15.560;2023-05-31T05:55:13;100754.59;;;16.80;62.76
10720;BME280;5411;58.386;15.560;2023-05-31T05:57:43;100765.06;;;16.88;62.55
10720;BME280;5411;58.386;15.560;2023-05-31T06:00:12;100763.28;;;16.94;63.01
10720;BME280;5411;58.386;15.560;2023-05-31T06:02:42;100761.31;;;17.01;62.54
10720;BME280;5411;58.386;15.560;2023-05-31T06:05:11;100753.66;;;17.09;63.12
10720;BME280;5411;58.386;15.560;2023-05-31T06:07:40;100759.78;;;17.17;62.20
10720;BME280;5411;58.386;15.560;2023-05-31T06:10:09;100760.59;;;17.17;62.92
10720;BME280;5411;58.386;15.560;2023-05-31T06:12:38;100755.19;;;17.17;63.44
10720;BME280;5411;58.386;15.560;2023-05-31T06:15:18;100755.91;;;17.13;63.30
10720;BME280;5411;58.386;15.560;2023-05-31T06:17:47;100762.13;;;17.01;63.41
10720;BME280;5411;58.386;15.560;2023-05-31T06:20:16;100756.13;;;16.88;63.45
10720;BME280;5411;58.386;15.560;2023-05-31T06:22:44;100762.25;;;16.95;63.27
10720;BME280;5411;58.386;15.560;2023-05-31T06:25:14;100746.00;;;17.06;63.78
10720;BME280;5411;58.386;15.560;2023-05-31T06:27:44;100751.91;;;17.15;63.12
10720;BME280;5411;58.386;15.560;2023-05-31T06:30:13;100744.59;;;17.27;62.91
10720;BME280;5411;58.386;15.560;2023-05-31T06:32:43;100759.16;;;17.38;63.30
10720;BME280;5411;58.386;15.560;2023-05-31T06:35:11;100761.16;;;17.42;61.32
10720;BME280;5411;58.386;15.560;2023-05-31T06:37:40;100764.69;;;17.43;61.97
10720;BME280;5411;58.386;15.560;2023-05-31T06:40:09;100759.72;;;17.52;62.31
10720;BME280;5411;58.386;15.560;2023-05-31T06:42:37;100749.03;;;17.57;61.86
10720;BME280;5411;58.386;15.560;2023-05-31T06:45:07;100751.59;;;17.63;62.28
10720;BME280;5411;58.386;15.560;2023-05-31T06:47:35;100741.72;;;17.69;61.05
10720;BME280;5411;58.386;15.560;2023-05-31T06:50:06;100748.28;;;17.73;60.94
10720;BME280;5411;58.386;15.560;2023-05-31T06:52:35;100747.97;;;17.69;60.95
10720;BME280;5411;58.386;15.560;2023-05-31T06:55:04;100749.91;;;17.74;60.79
10720;BME280;5411;58.386;15.560;2023-05-31T06:57:32;100741.69;;;17.80;60.95
10720;BME280;5411;58.386;15.560;2023-05-31T07:00:01;100740.38;;;17.83;60.88
10720;BME280;5411;58.386;15.560;2023-05-31T07:02:37;100747.88;;;17.93;60.45
10720;BME280;5411;58.386;15.560;2023-05-31T07:05:07;100742.28;;;17.99;59.58
10720;BME280;5411;58.386;15.560;2023-05-31T07:07:35;100740.63;;;18.10;60.31
10720;BME280;5411;58.386;15.560;2023-05-31T07:10:06;100737.97;;;18.15;59.17
10720;BME280;5411;58.386;15.560;2023-05-31T07:12:38;100740.88;;;18.25;59.71
10720;BME280;5411;58.386;15.560;2023-05-31T07:15:08;100737.19;;;18.31;59.25
10720;BME280;5411;58.386;15.560;2023-05-31T07:17:36;100739.44;;;18.34;58.39
10720;BME280;5411;58.386;15.560;2023-05-31T07:20:08;100733.41;;;18.32;58.72
10720;BME280;5411;58.386;15.560;2023-05-31T07:22:36;100724.00;;;18.35;59.22
10720;BME280;5411;58.386;15.560;2023-05-31T07:25:05;100730.72;;;18.32;59.50
10720;BME280;5411;58.386;15.560;2023-05-31T07:27:34;100731.38;;;18.39;58.76
10720;BME280;5411;58.386;15.560;2023-05-31T07:30:02;100734.81;;;18.35;58.60
10720;BME280;5411;58.386;15.560;2023-05-31T07:32:31;100735.41;;;18.37;59.08
10720;BME280;5411;58.386;15.560;2023-05-31T07:35:00;100747.72;;;18.44;59.41
10720;BME280;5411;58.386;15.560;2023-05-31T07:37:32;100730.09;;;18.59;59.24
10720;BME280;5411;58.386;15.560;2023-05-31T07:40:01;100730.75;;;18.66;57.71
10720;BME280;5411;58.386;15.560;2023-05-31T07:42:30;100743.56;;;18.70;58.09
10720;BME280;5411;58.386;15.560;2023-05-31T07:45:00;100728.53;;;18.79;58.04
10720;BME280;5411;58.386;15.560;2023-05-31T07:47:29;100733.06;;;18.91;58.73
10720;BME280;5411;58.386;15.560;2023-05-31T07:49:57;100725.06;;;19.01;56.80
10720;BME280;5411;58.386;15.560;2023-05-31T07:52:26;100731.94;;;19.08;57.50
10720;BME280;5411;58.386;15.560;2023-05-31T07:54:56;100726.75;;;19.07;55.48
10720;BME280;5411;58.386;15.560;2023-05-31T07:57:24;100727.28;;;19.04;55.89
10720;BME280;5411;58.386;15.560;2023-05-31T07:59:53;100734.16;;;19.11;56.11
10720;BME280;5411;58.386;15.560;2023-05-31T08:02:21;100733.97;;;19.18;55.50
10720;BME280;5411;58.386;15.560;2023-05-31T08:04:50;100732.59;;;19.15;56.03
10720;BME280;5411;58.386;15.560;2023-05-31T08:07:18;100732.59;;;19.15;56.18
10720;BME280;5411;58.386;15.560;2023-05-31T08:09:47;100732.66;;;19.20;55.89
10720;BME280;5411;58.386;15.560;2023-05-31T08:12:18;100725.75;;;19.30;56.08
10720;BME280;5411;58.386;15.560;2023-05-31T08:14:52;100719.97;;;19.48;56.19
10720;BME280;5411;58.386;15.560;2023-05-31T08:17:20;100720.09;;;19.53;55.15
10720;BME280;5411;58.386;15.560;2023-05-31T08:19:49;100717.13;;;19.54;54.36
10720;BME280;5411;58.386;15.560;2023-05-31T08:22:17;100722.41;;;19.66;55.25
10720;BME280;5411;58.386;15.560;2023-05-31T08:24:45;100727.06;;;19.71;54.13
10720;BME280;5411;58.386;15.560;2023-05-31T08:27:14;100722.88;;;19.85;55.23
10720;BME280;5411;58.386;15.560;2023-05-31T08:29:45;100731.66;;;19.92;54.78
10720;BME280;5411;58.386;15.560;2023-05-31T08:32:13;100722.19;;;19.95;55.38
10720;BME280;5411;58.386;15.560;2023-05-31T08:34:42;100725.72;;;19.95;54.14
10720;BME280;5411;58.386;15.560;2023-05-31T08:37:12;100723.31;;;19.99;54.53
10720;BME280;5411;58.386;15.560;2023-05-31T08:39:41;100723.13;;;20.05;54.42
10720;BME280;5411;58.386;15.560;2023-05-31T08:42:14;100721.31;;;20.16;53.64
10720;BME280;5411;58.386;15.560;2023-05-31T08:44:45;100723.09;;;20.32;54.22
10720;BME280;5411;58.386;15.560;2023-05-31T08:47:19;100713.38;;;20.36;53.53
10720;BME280;5411;58.386;15.560;2023-05-31T08:49:55;100717.03;;;20.25;53.65
10720;BME280;5411;58.386;15.560;2023-05-31T08:52:25;100710.69;;;20.14;54.36
10720;BME280;5411;58.386;15.560;2023-05-31T08:54:54;100708.19;;;20.08;54.35
10720;BME280;5411;58.386;15.560;2023-05-31T08:57:23;100711.41;;;20.05;54.03
10720;BME280;5411;58.386;15.560;2023-05-31T08:59:56;100707.47;;;20.17;55.12
10720;BME280;5411;58.386;15.560;2023-05-31T09:02:25;100711.56;;;20.20;54.24
10720;BME280;5411;58.386;15.560;2023-05-31T09:04:55;100698.63;;;20.32;54.92
10720;BME280;5411;58.386;15.560;2023-05-31T09:07:24;100701.00;;;20.50;54.66
10720;BME280;5411;58.386;15.560;2023-05-31T09:09:52;100707.03;;;20.57;53.23
10720;BME280;5411;58.386;15.560;2023-05-31T09:12:21;100703.28;;;20.63;53.32
10720;BME280;5411;58.386;15.560;2023-05-31T09:14:50;100709.25;;;20.66;53.55
10720;BME280;5411;58.386;15.560;2023-05-31T09:17:20;100701.91;;;20.66;52.10
10720;BME280;5411;58.386;15.560;2023-05-31T09:19:50;100697.09;;;20.73;51.67
10720;BME280;5411;58.386;15.560;2023-05-31T09:22:21;100697.75;;;20.90;51.63
10720;BME280;5411;58.386;15.560;2023-05-31T09:24:50;100691.59;;;21.10;51.60
10720;BME280;5411;58.386;15.560;2023-05-31T09:27:18;100690.59;;;21.21;50.25
10720;BME280;5411;58.386;15.560;2023-05-31T09:29:50;100678.84;;;21.16;50.69
10720;BME280;5411;58.386;15.560;2023-05-31T09:32:22;100679.13;;;21.19;50.96
10720;BME280;5411;58.386;15.560;2023-05-31T09:34:51;100686.47;;;21.19;49.89
10720;BME280;5411;58.386;15.560;2023-05-31T09:37:23;100679.69;;;21.21;50.07
10720;BME280;5411;58.386;15.560;2023-05-31T09:39:55;100672.94;;;21.34;51.16
10720;BME280;5411;58.386;15.560;2023-05-31T09:42:24;100676.28;;;21.51;51.69
10720;BME280;5411;58.386;15.560;2023-05-31T09:44:55;100672.25;;;21.74;51.34
10720;BME280;5411;58.386;15.560;2023-05-31T09:47:26;100673.66;;;21.82;50.90
10720;BME280;5411;58.386;15.560;2023-05-31T09:49:55;100670.41;;;22.00;51.51
10720;BME280;5411;58.386;15.560;2023-05-31T09:52:26;100666.34;;;22.08;49.84
10720;BME280;5411;58.386;15.560;2023-05-31T09:55:04;100666.34;;;22.18;50.33
10720;BME280;5411;58.386;15.560;2023-05-31T09:57:34;100663.63;;;22.28;49.46
10720;BME280;5411;58.386;15.560;2023-05-31T10:00:18;100664.72;;;22.27;47.33
10720;BME280;5411;58.386;15.560;2023-05-31T10:02:50;100656.53;;;22.17;48.16
10720;BME280;5411;58.386;15.560;2023-05-31T10:05:20;100657.34;;;22.17;48.42
10720;BME280;5411;58.386;15.560;2023-05-31T10:07:49;100649.19;;;22.22;47.80
10720;BME280;5411;58.386;15.560;2023-05-31T10:10:18;100647.81;;;22.35;48.58
10720;BME280;5411;58.386;15.560;2023-05-31T10:12:49;100643.97;;;22.51;47.71
10720;BME280;5411;58.386;15.560;2023-05-31T10:15:22;100642.84;;;22.67;48.06
10720;BME280;5411;58.386;15.560;2023-05-31T10:17:59;100636.56;;;22.67;47.72
10720;BME280;5411;58.386;15.560;2023-05-31T10:20:35;100644.75;;;22.67;47.75
10720;BME280;5411;58.386;15.560;2023-05-31T10:23:09;100634.97;;;22.76;47.51
10720;BME280;5411;58.386;15.560;2023-05-31T10:25:44;100635.47;;;22.88;48.10
10720;BME280;5411;58.386;15.560;2023-05-31T10:28:17;100639.03;;;22.89;46.09
10720;BME280;5411;58.386;15.560;2023-05-31T10:30:51;100647.44;;;23.02;46.81
10720;BME280;5411;58.386;15.560;2023-05-31T10:33:22;100641.19;;;22.97;45.87
10720;BME280;5411;58.386;15.560;2023-05-31T10:35:53;100646.63;;;23.02;46.42
10720;BME280;5411;58.386;15.560;2023-05-31T10:38:28;100644.69;;;23.13;45.81
10720;BME280;5411;58.386;15.560;2023-05-31T10:41:03;100639.75;;;23.15;45.01
10720;BME280;5411;58.386;15.560;2023-05-31T10:43:39;100637.03;;;23.09;45.11
10720;BME280;5411;58.386;15.560;2023-05-31T10:46:15;100643.09;;;23.01;45.06
10720;BME280;5411;58.386;15.560;2023-05-31T10:48:51;100637.34;;;22.93;44.38
10720;BME280;5411;58.386;15.560;2023-05-31T10:51:37;100622.91;;;22.92;45.33
10720;BME280;5411;58.386;15.560;2023-05-31T10:54:06;100623.94;;;23.06;45.05
10720;BME280;5411;58.386;15.560;2023-05-31T10:56:36;100616.22;;;23.24;45.64
10720;BME280;5411;58.386;15.560;2023-05-31T10:59:08;100613.97;;;23.36;44.52
10720;BME280;5411;58.386;15.560;2023-05-31T11:01:38;100609.53;;;23.50;44.92
10720;BME280;5411;58.386;15.560;2023-05-31T11:04:19;100615.13;;;23.74;44.48
10720;BME280;5411;58.386;15.560;2023-05-31T11:06:52;100626.25;;;23.88;44.08
10720;BME280;5411;58.386;15.560;2023-05-31T11:09:26;100613.66;;;23.92;43.81
10720;BME280;5411;58.386;15.560;2023-05-31T11:11:59;100609.72;;;24.03;44.40
10720;BME280;5411;58.386;15.560;2023-05-31T11:14:30;100606.91;;;24.13;43.97
10720;BME280;5411;58.386;15.560;2023-05-31T11:17:15;100606.19;;;24.02;41.39
10720;BME280;5411;58.386;15.560;2023-05-31T11:19:54;100603.44;;;24.02;41.67
10720;BME280;5411;58.386;15.560;2023-05-31T11:22:25;100602.03;;;24.10;41.53
10720;BME280;5411;58.386;15.560;2023-05-31T11:24:55;100607.94;;;24.22;42.30
10720;BME280;5411;58.386;15.560;2023-05-31T11:27:35;100601.44;;;24.47;41.81
10720;BME280;5411;58.386;15.560;2023-05-31T11:30:07;100600.03;;;24.49;41.46
10720;BME280;5411;58.386;15.560;2023-05-31T11:32:55;100598.06;;;24.55;41.67
10720;BME280;5411;58.386;15.560;2023-05-31T11:35:26;100599.19;;;24.20;41.21
10720;BME280;5411;58.386;15.560;2023-05-31T11:38:00;100595.91;;;23.89;42.12
10720;BME280;5411;58.386;15.560;2023-05-31T11:40:29;100598.66;;;23.84;41.74
10720;BME280;5411;58.386;15.560;2023-05-31T11:43:07;100590.16;;;23.91;41.82
10720;BME280;5411;58.386;15.560;2023-05-31T11:45:45;100590.44;;;23.89;43.04
10720;BME280;5411;58.386;15.560;2023-05-31T11:48:34;100593.88;;;24.00;42.06
10720;BME280;5411;58.386;15.560;2023-05-31T11:51:16;100589.78;;;24.02;41.65
10720;BME280;5411;58.386;15.560;2023-05-31T11:53:45;100588.47;;;23.95;41.14
10720;BME280;5411;58.386;15.560;2023-05-31T11:56:14;100593.00;;;23.70;42.26
10720;BME280;5411;58.386;15.560;2023-05-31T11:58:46;100590.69;;;23.49;42.36
10720;BME280;5411;58.386;15.560;2023-05-31T12:01:14;100588.34;;;23.27;42.94
10720;BME280;5411;58.386;15.560;2023-05-31T12:03:43;100587.84;;;23.20;44.05
10720;BME280;5411;58.386;15.560;2023-05-31T12:06:11;100590.53;;;23.30;42.53
10720;BME280;5411;58.386;15.560;2023-05-31T12:08:42;100584.41;;;23.48;42.72
10720;BME280;5411;58.386;15.560;2023-05-31T12:11:13;100582.22;;;23.55;44.03
10720;BME280;5411;58.386;15.560;2023-05-31T12:13:41;100575.97;;;23.84;44.31
10720;BME280;5411;58.386;15.560;2023-05-31T12:16:10;100576.66;;;23.99;43.15
10720;BME280;5411;58.386;15.560;2023-05-31T12:18:39;100575.28;;;24.02;41.78
10720;BME280;5411;58.386;15.560;2023-05-31T12:21:09;100577.81;;;23.93;41.87
10720;BME280;5411;58.386;15.560;2023-05-31T12:23:56;100571.00;;;23.91;42.39
10720;BME280;5411;58.386;15.560;2023-05-31T12:26:25;100569.13;;;23.86;42.68
10720;BME280;5411;58.386;15.560;2023-05-31T12:28:55;100572.22;;;23.74;41.67
10720;BME280;5411;58.386;15.560;2023-05-31T12:31:25;100566.22;;;23.72;41.60
10720;BME280;5411;58.386;15.560;2023-05-31T12:33:59;100569.78;;;23.73;42.44
10720;BME280;5411;58.386;15.560;2023-05-31T12:36:40;100569.19;;;23.81;41.80
10720;BME280;5411;58.386;15.560;2023-05-31T12:39:12;100570.75;;;23.87;41.57
10720;BME280;5411;58.386;15.560;2023-05-31T12:41:44;100561.47;;;23.88;41.37
10720;BME280;5411;58.386;15.560;2023-05-31T12:44:14;100551.09;;;23.85;41.59
10720;BME280;5411;58.386;15.560;2023-05-31T12:46:44;100553.22;;;23.93;41.74
10720;BME280;5411;58.386;15.560;2023-05-31T12:49:19;100557.06;;;23.92;42.69
10720;BME280;5411;58.386;15.560;2023-05-31T12:51:56;100548.19;;;24.05;41.75
10720;BME280;5411;58.386;15.560;2023-05-31T12:54:28;100545.06;;;24.17;41.24
10720;BME280;5411;58.386;15.560;2023-05-31T12:56:59;100542.44;;;24.07;42.04
10720;BME280;5411;58.386;15.560;2023-05-31T12:59:28;100544.66;;;24.00;41.66
10720;BME280;5411;58.386;15.560;2023-05-31T13:02:05;100542.28;;;23.93;41.19
10720;BME280;5411;58.386;15.560;2023-05-31T13:04:36;100536.25;;;23.96;41.07
10720;BME280;5411;58.386;15.560;2023-05-31T13:07:05;100533.81;;;23.95;40.38
10720;BME280;5411;58.386;15.560;2023-05-31T13:09:35;100533.44;;;24.01;40.64